METAR AND TAF INFORMATION
METAR FOR LECO
ADDS - METARS form results

(0605 UTC 02 December 2020)
Data provider http://aviationweather.gov/metar/data/
 
METAR text: LECO 020600Z 04005KT 020V080 CAVOK 11/08 Q1023 NOSIG
Conditions at: LECO (LA CORUNA/ALVEDR, ES) observed 0600 UTC 02 December 2020
Temperature: 11.0°C (52°F)
Dewpoint: 8.0°C (46°F) [RH = 82%]
Pressure (altimeter): 30.21 inches Hg (1023.0 mb)
Winds: from the NE (40 degrees) at 6 MPH (5 knots; 2.6 m/s)
Visibility: 6 or more miles (10+ km)
Ceiling: ceiling and visibility are OK
Clouds: unknown
Weather: no significant weather observed at this time

METAR text: LECO 020530Z 04003KT 350V070 CAVOK 11/09 Q1023 NOSIG
Conditions at: LECO (LA CORUNA/ALVEDR, ES) observed 0530 UTC 02 December 2020
Temperature: 11.0°C (52°F)
Dewpoint: 9.0°C (48°F) [RH = 87%]
Pressure (altimeter): 30.21 inches Hg (1023.0 mb)
Winds: from the NE (40 degrees) at 3 MPH (3 knots; 1.5 m/s)
Visibility: 6 or more miles (10+ km)
Ceiling: ceiling and visibility are OK
Clouds: unknown
Weather: no significant weather observed at this time

Forecast for: LECO (LA CORUNA/ALVEDR, ES)
Text: TAF LECO 020200Z 0203/0303 34007KT 9999 SCT015 BKN025 TX12/0213Z TN06/0303Z
Forecast period: 0300 UTC 02 December 2020 to 0300 UTC 03 December 2020
Forecast type: FROM: standard forecast or significant change
Winds: from the NNW (340 degrees) at 8 MPH (7 knots; 3.6 m/s)
Visibility: 6 or more miles (10+ km)
Ceiling: 2500 feet AGL
Clouds: scattered clouds at 1500 feet AGL
broken clouds at 2500 feet AGL
Weather: no significant weather forecast for this period
Text: PROB40
Forecast period: 0300 to 0800 UTC 02 December 2020
Forecast type: TEMPORARY: The following changes expected for less than half the time period
Visibility: 1.86 miles (2.99 km)
Ceiling: 1000 feet AGL
Clouds: broken clouds at 1000 feet AGL
Weather: -DZ BR  (light drizzle, mist)
Text: TEMPO 0203/0208 3000 -DZ BR BKN010
Forecast period: 0400 to 0700 UTC 02 December 2020
Forecast type: TEMPORARY: The following changes expected for less than half the time period
Visibility: 0.93 miles (1.50 km)
Ceiling: 500 feet AGL
Clouds: broken clouds at 500 feet AGL
Weather: DZ BCFG  (moderate drizzle, patches of fog)

 AIRPORT MAP

 RUNWAY INFORMATION
Runway 03 Runway length 6358 ft Runway width 148 ft
Runway elevation 327 ft Runway displaced threshold 0 ft Runway heading 31
Runway 21 Runway length 6358 ft Runway width 148 ft
Runway elevation 286 ft Runway displaced threshold 0 ft Runway heading 211

 AIRPORT FREQUENCIES
Type APP Name SANTIAGO A Frequency 120.2 MHZ
Type GND Name GND Frequency 121.7 MHZ
Type TWR Name A Coruña T Frequency 118.3 MHZ

 AIRPORT NEAR NAVIGATION AIDS
Type NDB Name La Coruna Frequency 401 KHZ
Type VOR-DME Name La Coruna Frequency 115100 KHZ



Powered by Virtual Airlines Manager [v2.6.2]